createdAt,value
2018-03-29T00:00:25.257Z,43.00
2018-03-29T00:02:53.160Z,43.10
2018-03-29T00:05:20.934Z,43.70
2018-03-29T00:07:48.686Z,43.10
2018-03-29T00:10:16.454Z,43.10
2018-03-29T00:12:44.199Z,43.10
2018-03-29T00:15:11.937Z,43.10
2018-03-29T00:17:39.716Z,43.00
2018-03-29T00:20:07.492Z,43.00
2018-03-29T00:22:35.261Z,43.00
2018-03-29T00:25:03.040Z,43.10
2018-03-29T00:27:30.816Z,43.20
2018-03-29T00:29:58.573Z,43.20
2018-03-29T00:32:26.377Z,43.20
2018-03-29T00:34:54.173Z,43.30
2018-03-29T00:37:21.938Z,43.60
2018-03-29T00:39:49.692Z,44.00
2018-03-29T00:42:17.456Z,44.10
2018-03-29T00:44:45.225Z,44.10
2018-03-29T00:47:13.896Z,44.10
2018-03-29T00:49:41.661Z,43.90
2018-03-29T00:52:09.413Z,43.80
2018-03-29T00:54:37.175Z,43.70
2018-03-29T00:57:04.950Z,43.70
2018-03-29T00:59:32.848Z,43.60
2018-03-29T01:02:00.584Z,43.60
2018-03-29T01:04:28.328Z,43.60
2018-03-29T01:06:56.099Z,43.50
2018-03-29T01:09:23.864Z,43.40
2018-03-29T01:11:51.610Z,43.30
2018-03-29T01:14:19.395Z,43.20
2018-03-29T01:16:47.955Z,43.00
2018-03-29T01:19:15.693Z,43.00
2018-03-29T01:21:44.225Z,42.90
2018-03-29T01:24:12.015Z,42.90
2018-03-29T01:26:39.781Z,42.80
2018-03-29T01:29:07.562Z,42.90
2018-03-29T01:31:36.103Z,42.80
2018-03-29T01:34:03.888Z,42.70
2018-03-29T01:36:31.648Z,42.70
2018-03-29T01:38:59.411Z,42.70
2018-03-29T01:41:27.192Z,42.70
2018-03-29T01:43:55.720Z,42.70
2018-03-29T01:46:23.468Z,42.70
2018-03-29T01:48:51.232Z,42.70
2018-03-29T01:51:19.012Z,42.90
2018-03-29T01:53:46.776Z,43.40
2018-03-29T01:56:14.525Z,44.10
2018-03-29T01:58:42.268Z,44.60
2018-03-29T02:01:10.833Z,45.10
2018-03-29T02:03:38.583Z,45.10
2018-03-29T02:06:06.360Z,45.20
2018-03-29T02:08:34.127Z,45.20
2018-03-29T02:11:02.665Z,45.10
2018-03-29T02:13:30.414Z,45.10
2018-03-29T02:15:58.176Z,45.10
2018-03-29T02:18:25.976Z,45.20
2018-03-29T02:20:53.755Z,45.10
2018-03-29T02:23:21.517Z,45.10
2018-03-29T02:25:49.360Z,45.00
2018-03-29T02:28:17.142Z,45.40
2018-03-29T02:30:44.903Z,44.80
2018-03-29T02:33:12.657Z,44.70
2018-03-29T02:35:40.424Z,44.70
2018-03-29T02:38:08.224Z,44.60
2018-03-29T02:40:36.020Z,44.50
2018-03-29T02:43:03.909Z,44.50
2018-03-29T02:45:31.704Z,44.50
2018-03-29T02:48:00.218Z,44.40
2018-03-29T02:50:27.981Z,44.40
2018-03-29T02:52:55.730Z,44.40
2018-03-29T02:55:24.277Z,44.40
2018-03-29T02:57:52.025Z,44.40
2018-03-29T03:00:19.797Z,44.40
2018-03-29T03:02:47.545Z,44.40
2018-03-29T03:05:15.279Z,44.40
2018-03-29T03:07:43.057Z,44.30
2018-03-29T03:10:10.886Z,44.20
2018-03-29T03:12:38.625Z,44.20
2018-03-29T03:15:07.152Z,44.20
2018-03-29T03:17:34.922Z,44.20
2018-03-29T03:20:02.684Z,44.20
2018-03-29T03:22:30.487Z,44.20
2018-03-29T03:24:58.295Z,44.20
2018-03-29T03:27:26.032Z,44.10
2018-03-29T03:29:54.558Z,44.10
2018-03-29T03:32:22.318Z,44.10
2018-03-29T03:34:50.062Z,44.10
2018-03-29T03:37:17.833Z,44.10
2018-03-29T03:39:45.600Z,44.10
2018-03-29T03:42:13.390Z,44.10
2018-03-29T03:44:41.169Z,44.10
2018-03-29T03:47:08.952Z,44.20
2018-03-29T03:49:37.469Z,44.20
2018-03-29T03:52:05.246Z,44.10
2018-03-29T03:54:32.994Z,44.10
2018-03-29T03:57:00.772Z,44.00
2018-03-29T03:59:28.526Z,44.10
2018-03-29T04:01:56.334Z,44.00
2018-03-29T04:04:24.107Z,44.00
2018-03-29T04:06:52.610Z,44.00
2018-03-29T04:09:20.371Z,44.00
2018-03-29T04:11:48.130Z,44.00
2018-03-29T04:14:16.652Z,44.00
2018-03-29T04:16:44.436Z,43.90
2018-03-29T04:19:12.247Z,44.00
2018-03-29T04:21:40.006Z,44.10
2018-03-29T04:24:07.779Z,44.00
2018-03-29T04:26:35.562Z,44.20
2018-03-29T04:29:03.365Z,44.30
2018-03-29T04:31:31.161Z,44.30
2018-03-29T04:33:58.913Z,44.70
2018-03-29T04:36:27.457Z,44.10
2018-03-29T04:38:55.200Z,44.10
2018-03-29T04:41:22.950Z,44.10
2018-03-29T04:43:50.718Z,44.10
2018-03-29T04:46:18.448Z,44.10
2018-03-29T04:48:46.965Z,44.30
2018-03-29T04:51:14.748Z,44.20
2018-03-29T04:53:42.509Z,44.30
2018-03-29T04:56:10.289Z,44.40
2018-03-29T04:58:38.064Z,44.50
2018-03-29T05:01:06.581Z,44.70
2018-03-29T05:03:34.388Z,44.70
2018-03-29T05:06:02.153Z,44.80
2018-03-29T05:08:29.897Z,44.90
2018-03-29T05:10:57.651Z,44.90
2018-03-29T05:13:25.410Z,45.00
2018-03-29T05:15:53.181Z,45.00
2018-03-29T05:18:20.973Z,45.10
2018-03-29T05:20:48.741Z,45.20
2018-03-29T05:23:16.560Z,45.30
2018-03-29T05:25:47.153Z,45.30
2018-03-29T05:28:15.688Z,45.50
2018-03-29T05:30:43.466Z,45.50
2018-03-29T05:33:11.246Z,45.60
2018-03-29T05:35:38.990Z,45.60
2018-03-29T05:38:06.766Z,45.90
2018-03-29T05:40:34.526Z,45.80
2018-03-29T05:43:02.376Z,45.80
2018-03-29T05:45:30.108Z,45.90
2018-03-29T05:47:57.880Z,45.90
2018-03-29T05:50:25.622Z,46.00
2018-03-29T05:52:53.405Z,46.00
2018-03-29T05:55:21.152Z,46.10
2018-03-29T05:57:48.915Z,46.10
2018-03-29T06:00:16.681Z,46.10
2018-03-29T06:02:44.428Z,46.20
2018-03-29T06:05:12.230Z,46.20
2018-03-29T06:07:39.984Z,46.20
2018-03-29T06:10:07.730Z,46.20
2018-03-29T06:12:35.651Z,46.20
2018-03-29T06:15:08.947Z,46.20
2018-03-29T06:17:36.651Z,46.30
2018-03-29T06:20:04.390Z,46.30
2018-03-29T06:22:32.831Z,46.20
2018-03-29T06:25:00.529Z,46.20
2018-03-29T06:27:28.978Z,46.00
2018-03-29T06:29:56.688Z,46.00
2018-03-29T06:32:25.114Z,45.80
2018-03-29T06:34:52.772Z,45.80
2018-03-29T06:37:20.449Z,45.80
2018-03-29T06:39:48.127Z,45.80
2018-03-29T06:42:15.799Z,45.80
2018-03-29T06:44:44.230Z,45.80
2018-03-29T06:47:11.934Z,45.70
2018-03-29T06:49:40.358Z,45.70
2018-03-29T06:52:08.050Z,45.70
2018-03-29T06:54:35.742Z,45.70
2018-03-29T06:57:04.910Z,45.60
2018-03-29T06:59:32.567Z,45.50
2018-03-29T07:02:00.277Z,45.60
2018-03-29T07:04:27.981Z,45.60
2018-03-29T07:06:55.832Z,45.50
2018-03-29T07:09:23.775Z,45.50
2018-03-29T07:11:51.667Z,45.40
2018-03-29T07:14:19.393Z,45.40
2018-03-29T07:16:47.898Z,45.40
2018-03-29T07:19:15.596Z,45.40
2018-03-29T07:21:43.390Z,45.30
2018-03-29T07:24:11.216Z,45.30
2018-03-29T07:26:39.030Z,45.30
2018-03-29T07:29:06.876Z,45.30
2018-03-29T07:31:35.518Z,45.50
2018-03-29T07:34:03.393Z,45.50
2018-03-29T07:36:31.309Z,45.60
2018-03-29T07:38:59.902Z,45.60
2018-03-29T07:41:28.525Z,45.60
2018-03-29T07:43:56.371Z,45.60
2018-03-29T07:46:24.216Z,45.60
2018-03-29T07:48:52.088Z,45.70
2018-03-29T07:51:19.924Z,45.70
2018-03-29T07:53:47.736Z,45.80
2018-03-29T07:56:15.517Z,46.00
2018-03-29T07:58:43.315Z,46.10
2018-03-29T08:01:11.129Z,46.30
2018-03-29T08:03:38.895Z,46.30
2018-03-29T08:06:07.070Z,46.40
2018-03-29T08:08:36.176Z,46.40
2018-03-29T08:11:04.721Z,46.50
2018-03-29T08:13:33.897Z,46.40
2018-03-29T08:16:02.767Z,46.60
2018-03-29T08:18:31.082Z,46.50
2018-03-29T08:20:59.099Z,46.60
2018-03-29T08:23:30.088Z,46.70
2018-03-29T08:26:00.269Z,46.80
2018-03-29T08:28:28.171Z,46.70
2018-03-29T08:30:55.943Z,47.00
2018-03-29T08:33:23.709Z,47.10
2018-03-29T08:35:51.483Z,47.20
2018-03-29T08:38:19.255Z,47.20
2018-03-29T08:40:47.023Z,47.30
2018-03-29T08:43:14.830Z,47.30
2018-03-29T08:45:42.625Z,47.40
2018-03-29T08:48:10.392Z,47.40
2018-03-29T08:50:38.168Z,47.40
2018-03-29T08:53:05.929Z,47.40
2018-03-29T08:55:33.745Z,47.40
2018-03-29T08:58:01.557Z,47.40
2018-03-29T09:00:29.369Z,47.40
2018-03-29T09:02:57.128Z,47.40
2018-03-29T09:05:24.907Z,47.40
2018-03-29T09:07:52.668Z,47.40
2018-03-29T09:10:20.464Z,48.20
2018-03-29T09:12:48.220Z,47.70
2018-03-29T09:15:16.006Z,47.70
2018-03-29T09:17:43.774Z,47.70
2018-03-29T09:20:11.543Z,47.70
2018-03-29T09:22:39.322Z,47.80
2018-03-29T09:25:07.852Z,48.10
2018-03-29T09:27:35.636Z,47.90
2018-03-29T09:30:03.436Z,48.10
2018-03-29T09:32:31.965Z,48.30
2018-03-29T09:34:59.805Z,48.20
2018-03-29T09:37:27.632Z,48.30
2018-03-29T09:39:56.173Z,48.50
2018-03-29T09:42:23.912Z,48.40
2018-03-29T09:44:51.695Z,48.40
2018-03-29T09:47:19.437Z,48.40
2018-03-29T09:49:47.254Z,48.30
2018-03-29T09:52:15.017Z,48.40
2018-03-29T09:54:42.788Z,48.40
2018-03-29T09:57:10.539Z,48.40
2018-03-29T09:59:38.293Z,48.50
2018-03-29T10:02:11.740Z,48.60
2018-03-29T10:04:39.527Z,48.60
2018-03-29T10:07:12.955Z,48.60
2018-03-29T10:09:40.775Z,48.60
2018-03-29T10:12:08.603Z,48.70
2018-03-29T10:14:37.189Z,48.90
2018-03-29T10:17:05.721Z,49.00
2018-03-29T10:19:33.460Z,48.90
2018-03-29T10:22:01.280Z,49.00
2018-03-29T10:24:29.047Z,49.00
2018-03-29T10:26:56.796Z,49.70
2018-03-29T10:29:24.556Z,49.00
2018-03-29T10:31:53.120Z,49.30
2018-03-29T10:34:20.876Z,49.30
2018-03-29T10:36:49.423Z,49.60
2018-03-29T10:39:17.979Z,49.60
2018-03-29T10:41:45.740Z,49.60
2018-03-29T10:44:13.521Z,49.60
2018-03-29T10:46:42.117Z,50.20
2018-03-29T10:49:09.865Z,49.60
2018-03-29T10:51:38.392Z,49.50
2018-03-29T10:54:06.163Z,49.50
2018-03-29T10:56:33.909Z,49.60
2018-03-29T10:59:01.776Z,49.60
2018-03-29T11:01:29.540Z,49.70
2018-03-29T11:03:57.316Z,49.60
2018-03-29T11:06:25.062Z,49.50
2018-03-29T11:08:52.823Z,49.50
2018-03-29T11:11:20.607Z,49.60
2018-03-29T11:13:48.352Z,49.80
2018-03-29T11:16:16.271Z,49.90
2018-03-29T11:18:44.798Z,50.00
2018-03-29T11:21:12.560Z,50.00
2018-03-29T11:23:40.357Z,50.00
2018-03-29T11:26:08.153Z,50.10
2018-03-29T11:28:36.727Z,50.10
2018-03-29T11:31:04.491Z,50.10
2018-03-29T11:33:32.341Z,50.10
2018-03-29T11:36:00.108Z,50.20
2018-03-29T11:38:27.885Z,50.30
2018-03-29T11:40:56.397Z,50.40
2018-03-29T11:43:24.713Z,50.40
2018-03-29T11:45:52.493Z,50.40
2018-03-29T11:48:20.296Z,50.50
2018-03-29T11:50:48.047Z,50.50
2018-03-29T11:53:15.812Z,50.50
2018-03-29T11:55:44.351Z,50.70
2018-03-29T11:58:12.106Z,50.70
2018-03-29T12:00:39.844Z,50.80
2018-03-29T12:03:07.603Z,50.80
2018-03-29T12:05:35.453Z,50.70
2018-03-29T12:08:03.212Z,50.70
2018-03-29T12:10:30.988Z,50.80
2018-03-29T12:12:58.788Z,50.90
2018-03-29T12:15:26.546Z,50.90
2018-03-29T12:17:54.330Z,51.00
2018-03-29T12:20:22.092Z,51.00
2018-03-29T12:22:49.868Z,51.00
2018-03-29T12:25:18.385Z,51.00
2018-03-29T12:27:46.195Z,50.90
2018-03-29T12:30:14.046Z,50.90
2018-03-29T12:32:41.816Z,50.90
2018-03-29T12:35:10.345Z,51.00
2018-03-29T12:37:38.175Z,51.00
2018-03-29T12:40:05.925Z,51.00
2018-03-29T12:42:33.700Z,51.00
2018-03-29T12:45:01.520Z,51.10
2018-03-29T12:47:29.268Z,51.10
2018-03-29T12:49:57.040Z,51.10
2018-03-29T12:52:24.792Z,51.00
2018-03-29T12:55:04.404Z,50.80
2018-03-29T12:57:44.054Z,50.90
2018-03-29T13:00:12.622Z,51.20
2018-03-29T13:02:40.388Z,51.20
2018-03-29T13:05:08.149Z,51.40
2018-03-29T13:07:35.913Z,51.80
2018-03-29T13:10:03.715Z,51.70
2018-03-29T13:12:31.480Z,51.20
2018-03-29T13:14:59.269Z,51.70
2018-03-29T13:17:27.048Z,51.80
2018-03-29T13:19:54.822Z,51.90
2018-03-29T13:22:22.575Z,51.80
2018-03-29T13:24:50.407Z,51.90
2018-03-29T13:27:18.175Z,51.90
2018-03-29T13:29:45.935Z,51.80
2018-03-29T13:32:13.694Z,51.60
2018-03-29T13:34:41.465Z,51.60
2018-03-29T13:37:09.229Z,51.70
2018-03-29T13:39:37.021Z,51.70
2018-03-29T13:42:04.819Z,51.70
2018-03-29T13:44:33.413Z,51.90
2018-03-29T13:47:01.179Z,51.80
2018-03-29T13:49:28.979Z,52.00
2018-03-29T13:51:56.771Z,52.10
2018-03-29T13:54:24.548Z,52.20
2018-03-29T13:56:53.842Z,52.10
2018-03-29T13:59:21.651Z,52.10
2018-03-29T14:01:49.410Z,52.20
2018-03-29T14:04:17.182Z,52.30
2018-03-29T14:06:44.952Z,52.20
2018-03-29T14:09:12.725Z,52.20
2018-03-29T14:11:40.541Z,52.20
2018-03-29T14:14:08.322Z,52.20
2018-03-29T14:16:36.090Z,52.20
2018-03-29T14:19:03.828Z,52.20
2018-03-29T14:21:32.389Z,52.10
2018-03-29T14:24:00.893Z,52.20
2018-03-29T14:26:28.684Z,52.10
2018-03-29T14:28:56.442Z,52.20
2018-03-29T14:31:24.232Z,52.10
2018-03-29T14:33:52.017Z,52.20
2018-03-29T14:36:19.819Z,52.20
2018-03-29T14:38:47.580Z,52.10
2018-03-29T14:41:15.340Z,52.10
2018-03-29T14:43:43.192Z,52.00
2018-03-29T14:46:11.008Z,52.10
2018-03-29T14:48:38.753Z,52.00
2018-03-29T14:51:06.702Z,52.10
2018-03-29T14:53:34.527Z,52.20
2018-03-29T14:56:02.355Z,52.00
2018-03-29T14:58:30.935Z,52.00
2018-03-29T15:00:58.770Z,52.60
2018-03-29T15:03:26.539Z,52.00
2018-03-29T15:05:54.317Z,51.80
2018-03-29T15:08:22.061Z,52.10
2018-03-29T15:10:49.908Z,52.10
2018-03-29T15:13:18.430Z,52.20
2018-03-29T15:15:46.182Z,52.10
2018-03-29T15:18:13.963Z,52.20
2018-03-29T15:20:41.710Z,52.20
2018-03-29T15:23:09.457Z,52.10
2018-03-29T15:25:37.233Z,52.10
2018-03-29T15:28:05.044Z,52.20
2018-03-29T15:30:32.790Z,52.30
2018-03-29T15:33:00.574Z,52.30
2018-03-29T15:35:28.331Z,52.40
2018-03-29T15:37:56.138Z,52.30
2018-03-29T15:40:23.898Z,52.30
2018-03-29T15:42:51.679Z,52.50
2018-03-29T15:45:19.531Z,52.70
2018-03-29T15:47:47.315Z,52.80
2018-03-29T15:50:15.071Z,52.80
2018-03-29T15:52:42.739Z,52.60
2018-03-29T15:55:10.476Z,52.60
2018-03-29T15:57:38.907Z,52.40
2018-03-29T16:00:06.638Z,52.40
2018-03-29T16:02:34.301Z,52.40
2018-03-29T16:05:01.978Z,52.40
2018-03-29T16:07:29.649Z,52.50
2018-03-29T16:09:57.319Z,52.50
2018-03-29T16:12:25.001Z,52.50
2018-03-29T16:14:52.702Z,52.50
2018-03-29T16:17:20.404Z,52.50
2018-03-29T16:19:48.086Z,52.50
2018-03-29T16:22:15.770Z,52.60
2018-03-29T16:24:44.196Z,52.40
2018-03-29T16:27:11.906Z,52.40
2018-03-29T16:29:40.354Z,52.40
2018-03-29T16:32:08.031Z,52.40
2018-03-29T16:34:35.702Z,52.40
2018-03-29T16:37:04.132Z,52.40
2018-03-29T16:39:31.821Z,52.30
2018-03-29T16:41:59.487Z,52.30
2018-03-29T16:44:27.185Z,52.30
2018-03-29T16:46:54.943Z,52.00
2018-03-29T16:49:22.682Z,52.30
2018-03-29T16:51:51.229Z,52.30
2018-03-29T16:54:18.897Z,52.30
2018-03-29T16:56:46.591Z,52.20
2018-03-29T16:59:15.202Z,52.40
2018-03-29T17:01:42.886Z,52.40
2018-03-29T17:04:10.547Z,52.40
2018-03-29T17:06:38.210Z,52.40
2018-03-29T17:09:05.911Z,52.30
2018-03-29T17:11:34.365Z,52.30
2018-03-29T17:14:02.081Z,52.30
2018-03-29T17:16:30.588Z,52.40
2018-03-29T17:18:58.400Z,52.40
2018-03-29T17:21:26.942Z,52.40
2018-03-29T17:23:54.721Z,52.30
2018-03-29T17:26:22.517Z,52.50
2018-03-29T17:28:50.312Z,52.50
2018-03-29T17:31:18.096Z,52.50
2018-03-29T17:33:45.848Z,52.50
2018-03-29T17:36:13.590Z,52.60
2018-03-29T17:38:41.333Z,52.60
2018-03-29T17:41:09.454Z,52.70
2018-03-29T17:43:37.217Z,52.70
2018-03-29T17:46:05.000Z,52.80
2018-03-29T17:48:34.141Z,52.80
2018-03-29T17:51:01.943Z,52.70
2018-03-29T17:53:29.703Z,52.60
2018-03-29T17:55:57.458Z,52.60
2018-03-29T17:58:25.269Z,52.50
2018-03-29T18:00:53.854Z,52.30
2018-03-29T18:03:23.176Z,52.30
2018-03-29T18:05:51.032Z,52.30
2018-03-29T18:08:18.788Z,52.20
2018-03-29T18:10:46.529Z,52.10
2018-03-29T18:13:15.061Z,52.00
2018-03-29T18:15:42.804Z,52.00
2018-03-29T18:18:10.582Z,51.90
2018-03-29T18:20:38.337Z,51.80
2018-03-29T18:23:06.133Z,51.80
2018-03-29T18:25:33.877Z,51.70
2018-03-29T18:28:01.645Z,51.70
2018-03-29T18:30:29.544Z,51.70
2018-03-29T18:32:57.290Z,51.70
2018-03-29T18:35:25.044Z,51.60
2018-03-29T18:37:52.824Z,51.60
2018-03-29T18:40:20.599Z,51.50
2018-03-29T18:42:48.346Z,51.50
2018-03-29T18:45:16.007Z,51.30
2018-03-29T18:47:43.669Z,51.40
2018-03-29T18:50:11.334Z,51.50
2018-03-29T18:52:38.980Z,51.40
2018-03-29T18:55:06.654Z,51.40
2018-03-29T18:57:34.351Z,51.30
2018-03-29T19:00:02.874Z,51.20
2018-03-29T19:02:30.640Z,51.20
2018-03-29T19:04:58.390Z,51.10
2018-03-29T19:07:26.166Z,51.10
2018-03-29T19:09:53.987Z,51.00
2018-03-29T19:12:21.851Z,50.90
2018-03-29T19:14:49.621Z,50.80
2018-03-29T19:17:17.428Z,50.80
2018-03-29T19:19:45.167Z,50.70
2018-03-29T19:22:12.952Z,50.70
2018-03-29T19:24:40.753Z,50.70
2018-03-29T19:27:09.289Z,50.60
2018-03-29T19:29:37.100Z,50.60
2018-03-29T19:32:05.620Z,50.60
2018-03-29T19:34:33.499Z,50.50
2018-03-29T19:37:01.276Z,50.50
2018-03-29T19:39:29.044Z,50.40
2018-03-29T19:41:56.815Z,50.40
2018-03-29T19:44:24.601Z,50.30
2018-03-29T19:46:53.132Z,50.20
2018-03-29T19:49:20.885Z,50.20
2018-03-29T19:51:48.632Z,50.10
2018-03-29T19:54:16.378Z,50.00
2018-03-29T19:56:44.900Z,49.90
2018-03-29T19:59:12.680Z,49.80
2018-03-29T20:01:40.484Z,49.80
2018-03-29T20:04:08.277Z,49.80
2018-03-29T20:06:36.021Z,49.70
2018-03-29T20:09:03.803Z,49.70
2018-03-29T20:11:31.527Z,49.60
2018-03-29T20:13:59.221Z,49.60
2018-03-29T20:16:26.928Z,49.60
2018-03-29T20:18:54.647Z,49.50
2018-03-29T20:21:22.340Z,49.50
2018-03-29T20:23:50.103Z,49.50
2018-03-29T20:26:17.828Z,49.40
2018-03-29T20:28:45.494Z,49.40
2018-03-29T20:31:13.196Z,49.30
2018-03-29T20:33:40.867Z,49.30
2018-03-29T20:36:08.635Z,49.30
2018-03-29T20:38:36.345Z,49.20
2018-03-29T20:41:04.043Z,49.10
2018-03-29T20:43:31.701Z,49.00
2018-03-29T20:45:59.370Z,49.00
2018-03-29T20:48:27.054Z,49.00
2018-03-29T20:50:54.743Z,49.00
2018-03-29T20:53:22.406Z,49.00
2018-03-29T20:55:50.080Z,49.00
2018-03-29T20:58:17.738Z,49.10
2018-03-29T21:00:45.410Z,49.20
2018-03-29T21:03:13.099Z,49.30
2018-03-29T21:05:40.794Z,49.30
2018-03-29T21:08:09.214Z,49.30
2018-03-29T21:10:36.887Z,49.20
2018-03-29T21:13:04.567Z,49.90
2018-03-29T21:15:32.216Z,49.20
2018-03-29T21:17:59.865Z,49.30
2018-03-29T21:20:27.629Z,49.30
2018-03-29T21:22:55.326Z,49.30
2018-03-29T21:25:23.779Z,49.10
2018-03-29T21:27:51.505Z,49.10
2018-03-29T21:30:19.169Z,49.10
2018-03-29T21:32:46.859Z,49.10
2018-03-29T21:35:14.549Z,49.10
2018-03-29T21:37:42.208Z,49.00
2018-03-29T21:40:09.893Z,49.70
2018-03-29T21:42:38.330Z,49.00
2018-03-29T21:45:05.995Z,48.90
2018-03-29T21:47:33.718Z,48.90
2018-03-29T21:50:01.402Z,48.90
2018-03-29T21:52:29.064Z,48.80
2018-03-29T21:54:56.824Z,48.70
2018-03-29T21:57:24.533Z,48.60
2018-03-29T21:59:52.188Z,48.60
2018-03-29T22:02:20.629Z,48.50
2018-03-29T22:04:48.382Z,48.50
2018-03-29T22:07:16.111Z,48.40
2018-03-29T22:09:44.479Z,48.40
2018-03-29T22:12:12.930Z,48.50
2018-03-29T22:14:40.593Z,48.50
2018-03-29T22:17:08.296Z,48.60
2018-03-29T22:19:35.972Z,48.70
2018-03-29T22:22:03.749Z,48.80
2018-03-29T22:24:31.420Z,48.80
2018-03-29T22:26:59.292Z,48.80
2018-03-29T22:29:26.964Z,48.80
2018-03-29T22:31:54.642Z,48.70
2018-03-29T22:34:23.126Z,48.70
2018-03-29T22:36:51.552Z,48.60
2018-03-29T22:39:19.222Z,48.60
2018-03-29T22:41:46.877Z,48.60
2018-03-29T22:44:14.580Z,48.50
2018-03-29T22:46:42.996Z,48.40
2018-03-29T22:49:10.752Z,48.40
2018-03-29T22:51:38.411Z,48.20
2018-03-29T22:54:06.116Z,48.10
2018-03-29T22:56:33.788Z,48.00
2018-03-29T22:59:01.458Z,48.00
2018-03-29T23:01:30.052Z,48.10
2018-03-29T23:03:58.508Z,48.10
2018-03-29T23:06:26.189Z,48.00
2018-03-29T23:08:54.642Z,48.20
2018-03-29T23:11:22.301Z,48.20
2018-03-29T23:13:49.975Z,48.00
2018-03-29T23:16:17.665Z,48.10
2018-03-29T23:18:46.119Z,48.10
2018-03-29T23:21:13.792Z,47.90
2018-03-29T23:23:42.233Z,48.00
2018-03-29T23:26:09.895Z,47.80
2018-03-29T23:28:37.564Z,47.80
2018-03-29T23:31:05.217Z,47.70
2018-03-29T23:33:32.875Z,47.80
2018-03-29T23:36:00.578Z,47.80
2018-03-29T23:38:28.992Z,47.80
2018-03-29T23:40:56.655Z,48.30
2018-03-29T23:43:24.308Z,47.60
2018-03-29T23:45:51.997Z,47.40
2018-03-29T23:48:19.690Z,47.40
2018-03-29T23:50:48.131Z,47.10
2018-03-29T23:53:15.774Z,47.10
2018-03-29T23:55:43.426Z,46.90
2018-03-29T23:58:17.157Z,46.60
